sensor_id;sensor_type;location;lat;lon;timestamp;temperature;humidity
21163;DHT22;10739;52.198;20.908;2023-07-16T00:00:11;21.90;99.90
21163;DHT22;10739;52.198;20.908;2023-07-16T00:02:38;21.90;99.90
21163;DHT22;10739;52.198;20.908;2023-07-16T00:05:04;21.90;99.90
21163;DHT22;10739;52.198;20.908;2023-07-16T00:07:32;21.90;99.90
21163;DHT22;10739;52.198;20.908;2023-07-16T00:09:58;21.80;99.90
21163;DHT22;10739;52.198;20.908;2023-07-16T00:12:24;21.80;99.90
21163;DHT22;10739;52.198;20.908;2023-07-16T00:14:51;21.80;99.90
21163;DHT22;10739;52.198;20.908;2023-07-16T00:17:17;21.70;99.90
21163;DHT22;10739;52.198;20.908;2023-07-16T00:19:43;21.70;99.90
21163;DHT22;10739;52.198;20.908;2023-07-16T00:22:09;21.70;99.90
21163;DHT22;10739;52.198;20.908;2023-07-16T00:24:35;21.60;99.90
21163;DHT22;10739;52.198;20.908;2023-07-16T00:27:01;21.60;99.90
21163;DHT22;10739;52.198;20.908;2023-07-16T00:29:27;21.60;99.90
21163;DHT22;10739;52.198;20.908;2023-07-16T00:31:54;21.60;99.90
21163;DHT22;10739;52.198;20.908;2023-07-16T00:34:20;21.60;99.90
21163;DHT22;10739;52.198;20.908;2023-07-16T00:36:46;21.50;99.90
21163;DHT22;10739;52.198;20.908;2023-07-16T00:39:12;21.50;99.90
21163;DHT22;10739;52.198;20.908;2023-07-16T00:41:38;21.50;99.90
21163;DHT22;10739;52.198;20.908;2023-07-16T00:44:04;21.40;99.90
21163;DHT22;10739;52.198;20.908;2023-07-16T00:46:30;21.40;99.90
21163;DHT22;10739;52.198;20.908;2023-07-16T00:48:56;21.40;99.90
21163;DHT22;10739;52.198;20.908;2023-07-16T00:51:24;21.30;99.90
21163;DHT22;10739;52.198;20.908;2023-07-16T00:53:52;21.20;99.90
21163;DHT22;10739;52.198;20.908;2023-07-16T00:56:19;21.20;99.90
21163;DHT22;10739;52.198;20.908;2023-07-16T00:58:45;21.20;99.90
21163;DHT22;10739;52.198;20.908;2023-07-16T01:01:12;21.20;99.90
21163;DHT22;10739;52.198;20.908;2023-07-16T01:03:38;21.10;99.90
21163;DHT22;10739;52.198;20.908;2023-07-16T01:06:18;21.10;99.90
21163;DHT22;10739;52.198;20.908;2023-07-16T01:09:01;21.10;99.90
21163;DHT22;10739;52.198;20.908;2023-07-16T01:11:33;21.10;99.90
21163;DHT22;10739;52.198;20.908;2023-07-16T01:14:05;21.10;99.90
21163;DHT22;10739;52.198;20.908;2023-07-16T01:16:32;21.00;99.90
21163;DHT22;10739;52.198;20.908;2023-07-16T01:18:58;21.00;99.90
21163;DHT22;10739;52.198;20.908;2023-07-16T01:25:16;21.00;99.90
21163;DHT22;10739;52.198;20.908;2023-07-16T01:28:03;21.00;99.90
21163;DHT22;10739;52.198;20.908;2023-07-16T01:30:44;21.00;99.90
21163;DHT22;10739;52.198;20.908;2023-07-16T01:33:13;21.00;99.90
21163;DHT22;10739;52.198;20.908;2023-07-16T01:35:42;21.00;99.90
21163;DHT22;10739;52.198;20.908;2023-07-16T01:38:11;21.00;99.90
21163;DHT22;10739;52.198;20.908;2023-07-16T01:40:37;20.90;99.90
21163;DHT22;10739;52.198;20.908;2023-07-16T01:43:04;20.90;99.90
21163;DHT22;10739;52.198;20.908;2023-07-16T01:45:30;20.80;99.90
21163;DHT22;10739;52.198;20.908;2023-07-16T01:50:54;20.70;99.90
21163;DHT22;10739;52.198;20.908;2023-07-16T01:53:20;20.70;99.90
21163;DHT22;10739;52.198;20.908;2023-07-16T01:55:46;20.70;99.90
21163;DHT22;10739;52.198;20.908;2023-07-16T01:58:12;20.70;99.90
21163;DHT22;10739;52.198;20.908;2023-07-16T02:00:39;20.70;99.90
21163;DHT22;10739;52.198;20.908;2023-07-16T02:03:05;20.70;99.90
21163;DHT22;10739;52.198;20.908;2023-07-16T02:05:31;20.60;99.90
21163;DHT22;10739;52.198;20.908;2023-07-16T02:07:58;20.60;99.90
21163;DHT22;10739;52.198;20.908;2023-07-16T02:10:24;20.60;99.90
21163;DHT22;10739;52.198;20.908;2023-07-16T02:12:50;20.60;99.90
21163;DHT22;10739;52.198;20.908;2023-07-16T02:15:17;20.60;99.90
21163;DHT22;10739;52.198;20.908;2023-07-16T02:17:44;20.60;99.90
21163;DHT22;10739;52.198;20.908;2023-07-16T02:20:11;20.60;99.90
21163;DHT22;10739;52.198;20.908;2023-07-16T02:22:37;20.60;99.90
21163;DHT22;10739;52.198;20.908;2023-07-16T02:25:04;20.50;99.90
21163;DHT22;10739;52.198;20.908;2023-07-16T02:27:31;20.50;99.90
21163;DHT22;10739;52.198;20.908;2023-07-16T02:29:57;20.50;99.90
21163;DHT22;10739;52.198;20.908;2023-07-16T02:32:23;20.50;99.90
21163;DHT22;10739;52.198;20.908;2023-07-16T02:34:50;20.50;99.90
21163;DHT22;10739;52.198;20.908;2023-07-16T02:37:16;20.40;99.90
21163;DHT22;10739;52.198;20.908;2023-07-16T02:39:44;20.40;99.90
21163;DHT22;10739;52.198;20.908;2023-07-16T02:42:12;20.40;99.90
21163;DHT22;10739;52.198;20.908;2023-07-16T02:44:38;20.40;99.90
21163;DHT22;10739;52.198;20.908;2023-07-16T02:47:09;20.40;99.90
21163;DHT22;10739;52.198;20.908;2023-07-16T02:49:35;20.30;99.90
21163;DHT22;10739;52.198;20.908;2023-07-16T02:52:01;20.40;99.90
21163;DHT22;10739;52.198;20.908;2023-07-16T02:54:27;20.30;99.90
21163;DHT22;10739;52.198;20.908;2023-07-16T02:56:53;20.30;99.90
21163;DHT22;10739;52.198;20.908;2023-07-16T02:59:19;20.30;99.90
21163;DHT22;10739;52.198;20.908;2023-07-16T03:01:46;20.20;99.90
21163;DHT22;10739;52.198;20.908;2023-07-16T03:04:12;20.30;99.90
21163;DHT22;10739;52.198;20.908;2023-07-16T03:06:38;20.20;99.90
21163;DHT22;10739;52.198;20.908;2023-07-16T03:09:04;20.20;99.90
21163;DHT22;10739;52.198;20.908;2023-07-16T03:11:31;20.20;99.90
21163;DHT22;10739;52.198;20.908;2023-07-16T03:13:57;20.20;99.90
21163;DHT22;10739;52.198;20.908;2023-07-16T03:16:23;20.20;99.90
21163;DHT22;10739;52.198;20.908;2023-07-16T03:18:49;20.20;99.90
21163;DHT22;10739;52.198;20.908;2023-07-16T03:21:15;20.20;99.90
21163;DHT22;10739;52.198;20.908;2023-07-16T03:23:42;20.20;99.90
21163;DHT22;10739;52.198;20.908;2023-07-16T03:26:08;20.20;99.90
21163;DHT22;10739;52.198;20.908;2023-07-16T03:28:34;20.20;99.90
21163;DHT22;10739;52.198;20.908;2023-07-16T03:31:01;20.20;99.90
21163;DHT22;10739;52.198;20.908;2023-07-16T03:33:27;20.20;99.90
21163;DHT22;10739;52.198;20.908;2023-07-16T03:35:54;20.20;99.90
21163;DHT22;10739;52.198;20.908;2023-07-16T03:38:20;20.30;99.90
21163;DHT22;10739;52.198;20.908;2023-07-16T03:40:47;20.30;99.90
21163;DHT22;10739;52.198;20.908;2023-07-16T03:43:15;20.40;99.90
21163;DHT22;10739;52.198;20.908;2023-07-16T03:45:42;20.40;99.90
21163;DHT22;10739;52.198;20.908;2023-07-16T03:48:09;20.40;99.90
21163;DHT22;10739;52.198;20.908;2023-07-16T03:50:36;20.40;99.90
21163;DHT22;10739;52.198;20.908;2023-07-16T03:53:02;20.40;99.90
21163;DHT22;10739;52.198;20.908;2023-07-16T03:55:31;20.40;99.90
21163;DHT22;10739;52.198;20.908;2023-07-16T03:57:57;20.40;99.90
21163;DHT22;10739;52.198;20.908;2023-07-16T04:00:23;20.40;99.90
21163;DHT22;10739;52.198;20.908;2023-07-16T04:02:49;20.40;99.90
21163;DHT22;10739;52.198;20.908;2023-07-16T04:05:16;20.50;99.90
21163;DHT22;10739;52.198;20.908;2023-07-16T04:07:42;20.60;99.90
21163;DHT22;10739;52.198;20.908;2023-07-16T04:10:08;20.60;99.90
21163;DHT22;10739;52.198;20.908;2023-07-16T04:12:35;20.60;99.90
21163;DHT22;10739;52.198;20.908;2023-07-16T04:15:00;20.60;99.90
21163;DHT22;10739;52.198;20.908;2023-07-16T04:17:32;20.70;99.90
21163;DHT22;10739;52.198;20.908;2023-07-16T04:19:58;20.70;99.90
21163;DHT22;10739;52.198;20.908;2023-07-16T04:22:24;20.80;99.90
21163;DHT22;10739;52.198;20.908;2023-07-16T04:24:51;20.90;99.90
21163;DHT22;10739;52.198;20.908;2023-07-16T04:27:17;20.90;99.90
21163;DHT22;10739;52.198;20.908;2023-07-16T04:29:44;21.00;99.90
21163;DHT22;10739;52.198;20.908;2023-07-16T04:32:10;21.10;99.90
21163;DHT22;10739;52.198;20.908;2023-07-16T04:34:36;21.10;99.90
21163;DHT22;10739;52.198;20.908;2023-07-16T04:37:02;21.10;99.90
21163;DHT22;10739;52.198;20.908;2023-07-16T04:39:29;21.30;99.90
21163;DHT22;10739;52.198;20.908;2023-07-16T04:41:55;21.40;99.90
21163;DHT22;10739;52.198;20.908;2023-07-16T04:44:21;21.50;99.90
21163;DHT22;10739;52.198;20.908;2023-07-16T04:46:47;21.50;99.90
21163;DHT22;10739;52.198;20.908;2023-07-16T04:49:13;21.60;99.90
21163;DHT22;10739;52.198;20.908;2023-07-16T04:51:39;21.70;99.90
21163;DHT22;10739;52.198;20.908;2023-07-16T04:54:05;21.80;99.90
21163;DHT22;10739;52.198;20.908;2023-07-16T04:56:32;21.80;99.90
21163;DHT22;10739;52.198;20.908;2023-07-16T04:58:58;21.90;99.90
21163;DHT22;10739;52.198;20.908;2023-07-16T05:01:24;22.00;99.90
21163;DHT22;10739;52.198;20.908;2023-07-16T05:03:51;22.20;99.90
21163;DHT22;10739;52.198;20.908;2023-07-16T05:06:17;22.30;99.90
21163;DHT22;10739;52.198;20.908;2023-07-16T05:08:43;22.40;99.90
21163;DHT22;10739;52.198;20.908;2023-07-16T05:11:09;22.60;99.90
21163;DHT22;10739;52.198;20.908;2023-07-16T05:13:36;22.70;99.90
21163;DHT22;10739;52.198;20.908;2023-07-16T05:16:02;22.80;99.90
21163;DHT22;10739;52.198;20.908;2023-07-16T05:18:28;22.90;99.90
21163;DHT22;10739;52.198;20.908;2023-07-16T05:20:54;23.00;99.90
21163;DHT22;10739;52.198;20.908;2023-07-16T05:23:20;23.20;99.90
21163;DHT22;10739;52.198;20.908;2023-07-16T05:25:48;23.20;99.90
21163;DHT22;10739;52.198;20.908;2023-07-16T05:28:15;23.30;99.90
21163;DHT22;10739;52.198;20.908;2023-07-16T05:30:42;23.40;99.90
21163;DHT22;10739;52.198;20.908;2023-07-16T05:33:09;23.50;99.90
21163;DHT22;10739;52.198;20.908;2023-07-16T05:35:36;23.60;99.90
21163;DHT22;10739;52.198;20.908;2023-07-16T05:38:02;23.70;99.90
21163;DHT22;10739;52.198;20.908;2023-07-16T05:40:28;23.80;99.90
21163;DHT22;10739;52.198;20.908;2023-07-16T05:42:55;23.90;99.90
21163;DHT22;10739;52.198;20.908;2023-07-16T05:45:21;23.90;99.90
21163;DHT22;10739;52.198;20.908;2023-07-16T05:47:47;24.00;99.90
21163;DHT22;10739;52.198;20.908;2023-07-16T05:50:13;24.20;99.90
21163;DHT22;10739;52.198;20.908;2023-07-16T05:52:39;24.30;99.90
21163;DHT22;10739;52.198;20.908;2023-07-16T05:55:05;24.30;99.90
21163;DHT22;10739;52.198;20.908;2023-07-16T05:57:32;24.50;99.90
21163;DHT22;10739;52.198;20.908;2023-07-16T05:59:58;24.60;99.90
21163;DHT22;10739;52.198;20.908;2023-07-16T06:02:24;24.70;99.90
21163;DHT22;10739;52.198;20.908;2023-07-16T06:04:50;24.80;99.90
21163;DHT22;10739;52.198;20.908;2023-07-16T06:07:16;25.00;99.90
21163;DHT22;10739;52.198;20.908;2023-07-16T06:09:43;25.10;99.90
21163;DHT22;10739;52.198;20.908;2023-07-16T06:12:09;25.20;99.90
21163;DHT22;10739;52.198;20.908;2023-07-16T06:14:35;25.30;99.90
21163;DHT22;10739;52.198;20.908;2023-07-16T06:17:01;25.40;99.90
21163;DHT22;10739;52.198;20.908;2023-07-16T06:19:28;25.50;99.90
21163;DHT22;10739;52.198;20.908;2023-07-16T06:21:54;25.60;99.90
21163;DHT22;10739;52.198;20.908;2023-07-16T06:24:20;25.80;99.90
21163;DHT22;10739;52.198;20.908;2023-07-16T06:26:46;25.90;99.90
21163;DHT22;10739;52.198;20.908;2023-07-16T06:29:13;26.00;99.90
21163;DHT22;10739;52.198;20.908;2023-07-16T06:31:43;26.10;99.90
21163;DHT22;10739;52.198;20.908;2023-07-16T06:34:10;26.10;99.90
21163;DHT22;10739;52.198;20.908;2023-07-16T06:36:38;26.20;99.90
21163;DHT22;10739;52.198;20.908;2023-07-16T06:39:04;26.30;99.90
21163;DHT22;10739;52.198;20.908;2023-07-16T06:41:30;26.40;99.90
21163;DHT22;10739;52.198;20.908;2023-07-16T06:43:57;26.60;99.90
21163;DHT22;10739;52.198;20.908;2023-07-16T06:46:23;26.70;99.90
21163;DHT22;10739;52.198;20.908;2023-07-16T06:48:50;26.70;99.90
21163;DHT22;10739;52.198;20.908;2023-07-16T06:51:16;26.70;99.90
21163;DHT22;10739;52.198;20.908;2023-07-16T06:53:42;26.70;99.90
21163;DHT22;10739;52.198;20.908;2023-07-16T06:56:08;26.70;99.90
21163;DHT22;10739;52.198;20.908;2023-07-16T06:58:34;26.90;99.90
21163;DHT22;10739;52.198;20.908;2023-07-16T07:01:00;27.00;99.90
21163;DHT22;10739;52.198;20.908;2023-07-16T07:03:27;27.20;99.90
21163;DHT22;10739;52.198;20.908;2023-07-16T07:05:53;27.20;99.90
21163;DHT22;10739;52.198;20.908;2023-07-16T07:08:19;27.20;99.90
21163;DHT22;10739;52.198;20.908;2023-07-16T07:10:48;27.20;99.90
21163;DHT22;10739;52.198;20.908;2023-07-16T07:13:15;27.30;99.90
21163;DHT22;10739;52.198;20.908;2023-07-16T07:15:42;27.60;99.90
21163;DHT22;10739;52.198;20.908;2023-07-16T07:18:08;27.70;99.90
21163;DHT22;10739;52.198;20.908;2023-07-16T07:20:34;27.80;99.90
21163;DHT22;10739;52.198;20.908;2023-07-16T07:23:00;28.00;99.90
21163;DHT22;10739;52.198;20.908;2023-07-16T07:25:29;28.20;99.90
21163;DHT22;10739;52.198;20.908;2023-07-16T07:27:55;28.30;99.80
21163;DHT22;10739;52.198;20.908;2023-07-16T07:30:21;28.40;99.30
21163;DHT22;10739;52.198;20.908;2023-07-16T07:32:49;28.60;98.80
21163;DHT22;10739;52.198;20.908;2023-07-16T07:35:15;28.50;98.70
21163;DHT22;10739;52.198;20.908;2023-07-16T07:37:41;28.50;98.70
21163;DHT22;10739;52.198;20.908;2023-07-16T07:40:07;28.70;98.80
21163;DHT22;10739;52.198;20.908;2023-07-16T07:42:34;28.80;98.40
21163;DHT22;10739;52.198;20.908;2023-07-16T07:45:00;28.90;98.10
21163;DHT22;10739;52.198;20.908;2023-07-16T07:47:26;29.00;97.70
21163;DHT22;10739;52.198;20.908;2023-07-16T07:49:53;29.20;97.20
21163;DHT22;10739;52.198;20.908;2023-07-16T07:52:19;29.50;97.20
21163;DHT22;10739;52.198;20.908;2023-07-16T07:54:45;29.60;96.30
21163;DHT22;10739;52.198;20.908;2023-07-16T07:57:11;29.80;96.50
21163;DHT22;10739;52.198;20.908;2023-07-16T07:59:37;30.00;96.10
21163;DHT22;10739;52.198;20.908;2023-07-16T08:02:04;30.10;95.60
21163;DHT22;10739;52.198;20.908;2023-07-16T08:04:31;30.20;95.40
21163;DHT22;10739;52.198;20.908;2023-07-16T08:06:58;30.40;95.40
21163;DHT22;10739;52.198;20.908;2023-07-16T08:09:26;30.50;94.80
21163;DHT22;10739;52.198;20.908;2023-07-16T08:11:52;30.80;94.30
21163;DHT22;10739;52.198;20.908;2023-07-16T08:14:19;30.90;94.00
21163;DHT22;10739;52.198;20.908;2023-07-16T08:16:45;31.20;92.80
21163;DHT22;10739;52.198;20.908;2023-07-16T08:19:11;31.30;92.00
21163;DHT22;10739;52.198;20.908;2023-07-16T08:21:37;31.40;91.50
21163;DHT22;10739;52.198;20.908;2023-07-16T08:24:05;31.40;91.50
21163;DHT22;10739;52.198;20.908;2023-07-16T08:26:32;31.70;90.30
21163;DHT22;10739;52.198;20.908;2023-07-16T08:28:59;31.70;87.10
21163;DHT22;10739;52.198;20.908;2023-07-16T08:31:27;31.70;87.90
21163;DHT22;10739;52.198;20.908;2023-07-16T08:33:53;31.70;87.20
21163;DHT22;10739;52.198;20.908;2023-07-16T08:36:19;31.80;86.70
21163;DHT22;10739;52.198;20.908;2023-07-16T08:38:45;31.90;86.70
21163;DHT22;10739;52.198;20.908;2023-07-16T08:41:11;31.90;85.80
21163;DHT22;10739;52.198;20.908;2023-07-16T08:43:39;32.10;86.30
21163;DHT22;10739;52.198;20.908;2023-07-16T08:46:06;32.10;84.40
21163;DHT22;10739;52.198;20.908;2023-07-16T08:48:34;32.00;85.70
21163;DHT22;10739;52.198;20.908;2023-07-16T08:51:02;32.10;85.80
21163;DHT22;10739;52.198;20.908;2023-07-16T08:53:33;32.20;85.20
21163;DHT22;10739;52.198;20.908;2023-07-16T08:56:01;32.30;85.30
21163;DHT22;10739;52.198;20.908;2023-07-16T08:58:30;32.10;84.00
21163;DHT22;10739;52.198;20.908;2023-07-16T09:00:56;32.30;84.40
21163;DHT22;10739;52.198;20.908;2023-07-16T09:03:24;32.50;83.60
21163;DHT22;10739;52.198;20.908;2023-07-16T09:05:50;32.40;82.70
21163;DHT22;10739;52.198;20.908;2023-07-16T09:08:16;32.70;82.90
21163;DHT22;10739;52.198;20.908;2023-07-16T09:10:43;33.00;82.60
21163;DHT22;10739;52.198;20.908;2023-07-16T09:13:10;32.90;81.10
21163;DHT22;10739;52.198;20.908;2023-07-16T09:15:36;32.90;80.70
21163;DHT22;10739;52.198;20.908;2023-07-16T09:18:04;32.90;79.20
21163;DHT22;10739;52.198;20.908;2023-07-16T09:20:30;32.90;79.50
21163;DHT22;10739;52.198;20.908;2023-07-16T09:22:57;33.00;79.70
21163;DHT22;10739;52.198;20.908;2023-07-16T09:25:30;33.00;79.50
21163;DHT22;10739;52.198;20.908;2023-07-16T09:28:02;33.40;79.90
21163;DHT22;10739;52.198;20.908;2023-07-16T09:30:33;33.70;79.30
21163;DHT22;10739;52.198;20.908;2023-07-16T09:33:21;33.60;78.70
21163;DHT22;10739;52.198;20.908;2023-07-16T09:35:51;33.70;77.90
21163;DHT22;10739;52.198;20.908;2023-07-16T09:38:18;33.90;78.80
21163;DHT22;10739;52.198;20.908;2023-07-16T09:40:45;33.70;75.70
21163;DHT22;10739;52.198;20.908;2023-07-16T09:43:12;33.50;76.20
21163;DHT22;10739;52.198;20.908;2023-07-16T09:45:39;33.80;76.50
21163;DHT22;10739;52.198;20.908;2023-07-16T09:48:07;33.70;75.80
21163;DHT22;10739;52.198;20.908;2023-07-16T09:50:35;34.10;75.70
21163;DHT22;10739;52.198;20.908;2023-07-16T09:53:04;34.20;73.90
21163;DHT22;10739;52.198;20.908;2023-07-16T09:55:33;34.10;74.00
21163;DHT22;10739;52.198;20.908;2023-07-16T09:58:05;33.80;74.50
21163;DHT22;10739;52.198;20.908;2023-07-16T10:00:35;34.00;74.10
21163;DHT22;10739;52.198;20.908;2023-07-16T10:03:02;34.30;72.80
21163;DHT22;10739;52.198;20.908;2023-07-16T10:05:31;34.70;72.40
21163;DHT22;10739;52.198;20.908;2023-07-16T10:08:03;35.00;71.70
21163;DHT22;10739;52.198;20.908;2023-07-16T10:10:46;35.10;72.00
21163;DHT22;10739;52.198;20.908;2023-07-16T10:13:14;35.80;70.30
21163;DHT22;10739;52.198;20.908;2023-07-16T10:15:55;35.50;70.20
21163;DHT22;10739;52.198;20.908;2023-07-16T10:18:34;35.10;70.30
21163;DHT22;10739;52.198;20.908;2023-07-16T10:21:03;34.50;70.60
21163;DHT22;10739;52.198;20.908;2023-07-16T10:23:59;34.20;72.10
21163;DHT22;10739;52.198;20.908;2023-07-16T10:26:29;34.20;73.30
21163;DHT22;10739;52.198;20.908;2023-07-16T10:28:55;33.80;73.30
21163;DHT22;10739;52.198;20.908;2023-07-16T10:31:23;33.50;74.40
21163;DHT22;10739;52.198;20.908;2023-07-16T10:34:03;33.60;75.40
21163;DHT22;10739;52.198;20.908;2023-07-16T10:36:36;33.50;76.00
21163;DHT22;10739;52.198;20.908;2023-07-16T10:39:04;33.40;76.50
21163;DHT22;10739;52.198;20.908;2023-07-16T10:41:33;33.30;75.50
21163;DHT22;10739;52.198;20.908;2023-07-16T10:44:00;33.20;76.60
21163;DHT22;10739;52.198;20.908;2023-07-16T10:46:27;32.00;75.20
21163;DHT22;10739;52.198;20.908;2023-07-16T10:48:53;33.10;76.70
21163;DHT22;10739;52.198;20.908;2023-07-16T10:51:25;33.40;77.20
21163;DHT22;10739;52.198;20.908;2023-07-16T10:53:55;33.90;78.30
21163;DHT22;10739;52.198;20.908;2023-07-16T10:56:22;34.20;77.30
21163;DHT22;10739;52.198;20.908;2023-07-16T10:58:49;34.10;75.90
21163;DHT22;10739;52.198;20.908;2023-07-16T11:01:15;34.00;75.50
21163;DHT22;10739;52.198;20.908;2023-07-16T11:03:42;33.90;76.80
21163;DHT22;10739;52.198;20.908;2023-07-16T11:06:09;34.20;75.90
21163;DHT22;10739;52.198;20.908;2023-07-16T11:08:37;34.80;74.90
21163;DHT22;10739;52.198;20.908;2023-07-16T11:11:04;35.50;73.80
21163;DHT22;10739;52.198;20.908;2023-07-16T11:13:33;36.20;71.20
21163;DHT22;10739;52.198;20.908;2023-07-16T11:16:09;36.10;70.30
21163;DHT22;10739;52.198;20.908;2023-07-16T11:18:36;36.20;70.70
21163;DHT22;10739;52.198;20.908;2023-07-16T11:21:03;36.20;71.50
21163;DHT22;10739;52.198;20.908;2023-07-16T11:23:32;37.00;69.10
21163;DHT22;10739;52.198;20.908;2023-07-16T11:26:02;36.70;68.80
21163;DHT22;10739;52.198;20.908;2023-07-16T11:28:39;36.50;68.70
21163;DHT22;10739;52.198;20.908;2023-07-16T11:31:14;35.70;70.70
21163;DHT22;10739;52.198;20.908;2023-07-16T11:33:45;36.00;70.50
21163;DHT22;10739;52.198;20.908;2023-07-16T11:36:12;36.20;69.60
21163;DHT22;10739;52.198;20.908;2023-07-16T11:38:39;36.00;69.90
21163;DHT22;10739;52.198;20.908;2023-07-16T11:41:05;35.20;71.40
21163;DHT22;10739;52.198;20.908;2023-07-16T11:43:35;35.40;71.00
21163;DHT22;10739;52.198;20.908;2023-07-16T11:46:02;35.70;70.20
21163;DHT22;10739;52.198;20.908;2023-07-16T11:48:29;35.50;70.60
21163;DHT22;10739;52.198;20.908;2023-07-16T11:50:55;35.00;70.90
21163;DHT22;10739;52.198;20.908;2023-07-16T11:53:21;34.60;71.80
21163;DHT22;10739;52.198;20.908;2023-07-16T11:55:48;34.50;72.70
21163;DHT22;10739;52.198;20.908;2023-07-16T11:58:14;34.70;73.70
21163;DHT22;10739;52.198;20.908;2023-07-16T12:00:40;34.40;71.80
21163;DHT22;10739;52.198;20.908;2023-07-16T12:03:06;34.20;72.30
21163;DHT22;10739;52.198;20.908;2023-07-16T12:05:33;34.30;73.00
21163;DHT22;10739;52.198;20.908;2023-07-16T12:07:59;34.90;71.90
21163;DHT22;10739;52.198;20.908;2023-07-16T12:10:25;35.20;69.80
21163;DHT22;10739;52.198;20.908;2023-07-16T12:12:51;35.30;70.70
21163;DHT22;10739;52.198;20.908;2023-07-16T12:15:17;36.30;69.30
21163;DHT22;10739;52.198;20.908;2023-07-16T12:17:43;36.90;65.80
21163;DHT22;10739;52.198;20.908;2023-07-16T12:20:10;36.90;65.90
21163;DHT22;10739;52.198;20.908;2023-07-16T12:22:36;36.90;65.60
21163;DHT22;10739;52.198;20.908;2023-07-16T12:25:03;36.90;66.10
21163;DHT22;10739;52.198;20.908;2023-07-16T12:27:29;37.80;64.80
21163;DHT22;10739;52.198;20.908;2023-07-16T12:29:56;37.60;65.20
21163;DHT22;10739;52.198;20.908;2023-07-16T12:32:22;38.30;64.00
21163;DHT22;10739;52.198;20.908;2023-07-16T12:34:48;38.20;63.20
21163;DHT22;10739;52.198;20.908;2023-07-16T12:37:14;39.30;62.10
21163;DHT22;10739;52.198;20.908;2023-07-16T12:39:42;38.90;61.00
21163;DHT22;10739;52.198;20.908;2023-07-16T12:42:09;39.40;61.10
21163;DHT22;10739;52.198;20.908;2023-07-16T12:44:35;38.90;59.80
21163;DHT22;10739;52.198;20.908;2023-07-16T12:47:01;39.30;59.90
21163;DHT22;10739;52.198;20.908;2023-07-16T12:49:27;39.40;59.00
21163;DHT22;10739;52.198;20.908;2023-07-16T12:51:53;39.70;58.00
21163;DHT22;10739;52.198;20.908;2023-07-16T12:54:19;39.20;58.60
21163;DHT22;10739;52.198;20.908;2023-07-16T12:56:46;37.90;58.80
21163;DHT22;10739;52.198;20.908;2023-07-16T12:59:12;36.80;60.60
21163;DHT22;10739;52.198;20.908;2023-07-16T13:01:38;37.00;61.70
21163;DHT22;10739;52.198;20.908;2023-07-16T13:04:04;38.00;60.80
21163;DHT22;10739;52.198;20.908;2023-07-16T13:06:30;38.00;59.40
21163;DHT22;10739;52.198;20.908;2023-07-16T13:08:57;38.20;59.20
21163;DHT22;10739;52.198;20.908;2023-07-16T13:11:24;38.20;57.00
21163;DHT22;10739;52.198;20.908;2023-07-16T13:13:50;38.00;57.20
21163;DHT22;10739;52.198;20.908;2023-07-16T13:16:17;38.10;57.50
21163;DHT22;10739;52.198;20.908;2023-07-16T13:18:43;37.80;58.00
21163;DHT22;10739;52.198;20.908;2023-07-16T13:21:08;37.70;58.00
21163;DHT22;10739;52.198;20.908;2023-07-16T13:23:35;37.70;58.50
21163;DHT22;10739;52.198;20.908;2023-07-16T13:26:02;37.60;58.00
21163;DHT22;10739;52.198;20.908;2023-07-16T13:28:28;37.60;57.70
21163;DHT22;10739;52.198;20.908;2023-07-16T13:30:54;37.90;58.20
21163;DHT22;10739;52.198;20.908;2023-07-16T13:33:20;38.60;57.60
21163;DHT22;10739;52.198;20.908;2023-07-16T13:35:48;39.00;56.90
21163;DHT22;10739;52.198;20.908;2023-07-16T13:38:14;39.70;56.70
21163;DHT22;10739;52.198;20.908;2023-07-16T13:40:41;39.60;56.20
21163;DHT22;10739;52.198;20.908;2023-07-16T13:43:07;39.70;55.70
21163;DHT22;10739;52.198;20.908;2023-07-16T13:45:34;39.70;55.20
21163;DHT22;10739;52.198;20.908;2023-07-16T13:48:00;40.00;55.30
21163;DHT22;10739;52.198;20.908;2023-07-16T13:50:26;40.30;54.90
21163;DHT22;10739;52.198;20.908;2023-07-16T13:52:52;39.50;54.30
21163;DHT22;10739;52.198;20.908;2023-07-16T13:55:18;38.60;55.60
21163;DHT22;10739;52.198;20.908;2023-07-16T13:57:45;37.80;56.10
21163;DHT22;10739;52.198;20.908;2023-07-16T14:00:11;36.50;57.80
21163;DHT22;10739;52.198;20.908;2023-07-16T14:02:38;36.00;59.30
21163;DHT22;10739;52.198;20.908;2023-07-16T14:05:04;35.60;59.30
21163;DHT22;10739;52.198;20.908;2023-07-16T14:07:31;35.40;59.30
21163;DHT22;10739;52.198;20.908;2023-07-16T14:09:57;35.40;60.80
21163;DHT22;10739;52.198;20.908;2023-07-16T14:12:23;35.40;60.70
21163;DHT22;10739;52.198;20.908;2023-07-16T14:14:50;35.90;59.80
21163;DHT22;10739;52.198;20.908;2023-07-16T14:17:16;35.90;59.80
21163;DHT22;10739;52.198;20.908;2023-07-16T14:19:42;35.80;59.80
21163;DHT22;10739;52.198;20.908;2023-07-16T14:22:08;35.70;59.90
21163;DHT22;10739;52.198;20.908;2023-07-16T14:24:37;35.50;60.10
21163;DHT22;10739;52.198;20.908;2023-07-16T14:27:04;35.30;61.30
21163;DHT22;10739;52.198;20.908;2023-07-16T14:29:32;35.00;60.50
21163;DHT22;10739;52.198;20.908;2023-07-16T14:31:58;34.80;61.20
21163;DHT22;10739;52.198;20.908;2023-07-16T14:34:28;34.60;61.60
21163;DHT22;10739;52.198;20.908;2023-07-16T14:36:54;34.30;61.80
21163;DHT22;10739;52.198;20.908;2023-07-16T14:39:21;34.10;62.90
21163;DHT22;10739;52.198;20.908;2023-07-16T14:41:47;34.00;63.00
21163;DHT22;10739;52.198;20.908;2023-07-16T14:44:13;33.90;62.90
21163;DHT22;10739;52.198;20.908;2023-07-16T14:46:39;33.50;63.40
21163;DHT22;10739;52.198;20.908;2023-07-16T14:49:05;33.10;63.80
21163;DHT22;10739;52.198;20.908;2023-07-16T14:51:32;33.00;64.00
21163;DHT22;10739;52.198;20.908;2023-07-16T14:54:09;32.70;64.40
21163;DHT22;10739;52.198;20.908;2023-07-16T14:56:36;32.70;65.70
21163;DHT22;10739;52.198;20.908;2023-07-16T14:59:02;32.60;64.90
21163;DHT22;10739;52.198;20.908;2023-07-16T15:01:29;32.50;65.40
21163;DHT22;10739;52.198;20.908;2023-07-16T15:03:55;32.40;65.50
21163;DHT22;10739;52.198;20.908;2023-07-16T15:06:21;32.20;65.80
21163;DHT22;10739;52.198;20.908;2023-07-16T15:08:48;32.20;65.70
21163;DHT22;10739;52.198;20.908;2023-07-16T15:11:14;32.00;66.40
21163;DHT22;10739;52.198;20.908;2023-07-16T15:13:41;31.90;66.10
21163;DHT22;10739;52.198;20.908;2023-07-16T15:16:07;31.70;66.50
21163;DHT22;10739;52.198;20.908;2023-07-16T15:18:33;31.60;68.30
21163;DHT22;10739;52.198;20.908;2023-07-16T15:21:00;31.50;67.20